createdAt,value
2022-12-16T00:01:07.496Z,19.07
2022-12-16T00:03:34.919Z,20.27
2022-12-16T00:06:04.434Z,20.10
2022-12-16T00:08:33.678Z,20.33
2022-12-16T00:11:01.299Z,19.30
2022-12-16T00:13:30.873Z,19.23
2022-12-16T00:15:58.783Z,18.90
2022-12-16T00:18:26.189Z,20.70
2022-12-16T00:20:55.025Z,19.60
2022-12-16T00:23:22.579Z,20.40
2022-12-16T00:25:49.909Z,19.57
2022-12-16T00:28:22.856Z,20.50
2022-12-16T00:30:52.939Z,20.67
2022-12-16T00:33:24.000Z,20.10
2022-12-16T00:35:51.110Z,19.47
2022-12-16T00:38:18.909Z,20.60
2022-12-16T00:40:46.127Z,20.03
2022-12-16T00:43:13.506Z,19.83
2022-12-16T00:45:40.516Z,20.77
2022-12-16T00:48:08.818Z,20.67
2022-12-16T00:50:36.147Z,20.23
2022-12-16T00:53:03.103Z,21.10
2022-12-16T00:55:30.152Z,20.83
2022-12-16T00:57:57.056Z,19.43
2022-12-16T01:00:24.345Z,20.87
2022-12-16T01:02:51.779Z,21.20
2022-12-16T01:05:26.725Z,19.83
2022-12-16T01:07:54.316Z,19.33
2022-12-16T01:10:21.246Z,19.20
2022-12-16T01:12:48.182Z,20.57
2022-12-16T01:15:15.126Z,21.33
2022-12-16T01:17:42.376Z,20.77
2022-12-16T01:20:10.778Z,19.57
2022-12-16T01:22:39.344Z,20.07
2022-12-16T01:25:07.032Z,19.97
2022-12-16T01:27:33.990Z,21.30
2022-12-16T01:30:00.886Z,19.23
2022-12-16T01:32:27.809Z,20.17
2022-12-16T01:34:55.820Z,20.37
2022-12-16T01:37:23.548Z,20.50
2022-12-16T01:39:52.310Z,19.50
2022-12-16T01:42:21.558Z,19.97
2022-12-16T01:44:52.090Z,20.37
2022-12-16T01:47:25.225Z,19.60
2022-12-16T01:49:59.210Z,20.23
2022-12-16T01:52:30.058Z,19.77
2022-12-16T01:55:02.924Z,20.30
2022-12-16T01:57:36.331Z,19.23
2022-12-16T02:00:06.227Z,20.17
2022-12-16T02:02:41.259Z,19.67
2022-12-16T02:05:20.733Z,20.33
2022-12-16T02:07:54.991Z,19.57
2022-12-16T02:10:47.045Z,19.37
2022-12-16T02:13:21.482Z,18.80
2022-12-16T02:15:54.928Z,19.07
2022-12-16T02:18:31.234Z,18.57
2022-12-16T02:21:34.684Z,19.23
2022-12-16T02:24:46.231Z,18.47
2022-12-16T02:27:42.523Z,18.53
2022-12-16T02:30:31.061Z,19.57
2022-12-16T02:33:06.097Z,18.03
2022-12-16T02:35:39.419Z,18.70
2022-12-16T02:38:18.959Z,18.53
2022-12-16T02:40:51.202Z,19.63
2022-12-16T02:43:36.088Z,19.20
2022-12-16T02:46:06.438Z,19.33
2022-12-16T02:48:33.482Z,17.70
2022-12-16T02:51:00.476Z,18.83
2022-12-16T02:53:29.060Z,19.47
2022-12-16T02:56:04.992Z,19.00
2022-12-16T02:58:38.928Z,18.47
2022-12-16T03:01:17.498Z,18.83
2022-12-16T03:03:49.939Z,19.07
2022-12-16T03:06:20.189Z,18.87
2022-12-16T03:08:51.642Z,18.20
2022-12-16T03:11:19.210Z,18.77
2022-12-16T03:13:51.168Z,18.77
2022-12-16T03:16:22.793Z,19.20
2022-12-16T03:18:54.987Z,18.60
2022-12-16T03:21:24.946Z,19.23
2022-12-16T03:23:55.399Z,19.03
2022-12-16T03:26:27.118Z,19.37
2022-12-16T03:29:00.460Z,18.43
2022-12-16T03:31:35.932Z,18.50
2022-12-16T03:34:10.674Z,18.57
2022-12-16T03:36:39.765Z,17.87
2022-12-16T03:39:08.168Z,18.37
2022-12-16T03:41:35.845Z,18.37
2022-12-16T03:44:03.176Z,17.77
2022-12-16T03:46:32.512Z,19.60
2022-12-16T03:48:59.489Z,18.87
2022-12-16T03:51:26.482Z,18.27
2022-12-16T03:53:53.580Z,18.70
2022-12-16T03:56:20.744Z,17.77
2022-12-16T03:58:47.623Z,18.30
2022-12-16T04:01:15.064Z,18.70
2022-12-16T04:03:43.423Z,19.23
2022-12-16T04:06:10.405Z,18.13
2022-12-16T04:08:37.283Z,17.70
2022-12-16T04:11:22.887Z,18.47
2022-12-16T04:14:08.407Z,19.03
2022-12-16T04:16:53.859Z,17.73
2022-12-16T04:19:44.929Z,17.37
2022-12-16T04:22:33.572Z,18.80
2022-12-16T04:25:05.080Z,17.80
2022-12-16T04:27:31.974Z,17.60
2022-12-16T04:30:17.500Z,17.07
2022-12-16T04:33:03.347Z,18.13
2022-12-16T04:35:50.265Z,18.57
2022-12-16T04:38:36.029Z,17.67
2022-12-16T04:41:21.390Z,17.83
2022-12-16T04:44:07.801Z,18.17
2022-12-16T04:46:53.621Z,17.37
2022-12-16T04:49:38.996Z,17.37
2022-12-16T04:52:26.058Z,16.47
2022-12-16T04:55:11.385Z,16.27
2022-12-16T04:57:57.206Z,16.27
2022-12-16T05:00:43.597Z,16.87
2022-12-16T05:03:29.763Z,16.37
2022-12-16T05:06:15.645Z,15.80
2022-12-16T05:09:02.606Z,15.00
2022-12-16T05:11:47.964Z,15.77
2022-12-16T05:14:33.705Z,14.73
2022-12-16T05:17:19.240Z,15.00
2022-12-16T05:20:04.900Z,14.90
2022-12-16T05:22:50.731Z,14.70
2022-12-16T05:25:37.534Z,15.23
2022-12-16T05:28:23.703Z,14.50
2022-12-16T05:31:09.560Z,15.87
2022-12-16T05:33:54.985Z,15.03
2022-12-16T05:36:40.931Z,14.10
2022-12-16T05:39:26.418Z,14.37
2022-12-16T05:42:13.705Z,13.77
2022-12-16T05:45:03.729Z,13.93
2022-12-16T05:47:49.368Z,14.20
2022-12-16T05:50:34.876Z,13.67
2022-12-16T05:53:27.925Z,14.43
2022-12-16T05:56:13.955Z,14.40
2022-12-16T05:59:00.784Z,14.17
2022-12-16T06:01:46.467Z,13.70
2022-12-16T06:04:31.965Z,13.87
2022-12-16T06:07:17.276Z,14.63
2022-12-16T06:10:02.824Z,13.67
2022-12-16T06:12:48.434Z,12.83
2022-12-16T06:15:35.513Z,14.23
2022-12-16T06:18:20.935Z,12.93
2022-12-16T06:21:06.926Z,13.00
2022-12-16T06:23:52.385Z,13.30
2022-12-16T06:26:37.734Z,13.30
2022-12-16T06:29:23.239Z,13.80
2022-12-16T06:32:10.220Z,13.27
2022-12-16T06:34:55.720Z,12.07
2022-12-16T06:37:41.297Z,11.93
2022-12-16T06:40:28.555Z,13.13
2022-12-16T06:43:14.034Z,12.00
2022-12-16T06:45:59.670Z,12.67
2022-12-16T06:48:48.151Z,11.30
2022-12-16T06:51:33.707Z,11.63
2022-12-16T06:54:19.383Z,11.57
2022-12-16T06:57:04.972Z,11.40
2022-12-16T06:59:50.570Z,10.80
2022-12-16T07:02:36.358Z,12.13
2022-12-16T07:05:23.918Z,11.03
2022-12-16T07:08:10.503Z,11.63
2022-12-16T07:11:02.306Z,12.03
2022-12-16T07:13:59.092Z,11.30
2022-12-16T07:16:44.600Z,12.47
2022-12-16T07:19:29.970Z,11.50
2022-12-16T07:22:16.548Z,10.27
2022-12-16T07:25:02.076Z,11.27
2022-12-16T07:27:47.526Z,11.00
2022-12-16T07:30:33.250Z,10.80
2022-12-16T07:33:18.844Z,11.47
2022-12-16T07:36:04.052Z,10.73
2022-12-16T07:38:50.741Z,11.13
2022-12-16T07:41:36.302Z,10.97
2022-12-16T07:44:23.213Z,11.27
2022-12-16T07:47:08.469Z,10.73
2022-12-16T07:49:53.938Z,10.83
2022-12-16T07:52:41.286Z,10.83
2022-12-16T07:55:28.265Z,9.87
2022-12-16T07:58:13.785Z,10.40
2022-12-16T08:00:59.862Z,10.00
2022-12-16T08:03:46.487Z,10.53
2022-12-16T08:06:34.783Z,11.03
2022-12-16T08:09:22.744Z,10.27
2022-12-16T08:12:09.651Z,9.53
2022-12-16T08:14:55.195Z,9.97
2022-12-16T08:17:41.001Z,9.43
2022-12-16T08:20:27.841Z,9.33
2022-12-16T08:23:13.263Z,10.07
2022-12-16T08:25:58.920Z,9.33
2022-12-16T08:28:45.541Z,8.83
2022-12-16T08:31:31.123Z,9.30
2022-12-16T08:34:18.279Z,9.63
2022-12-16T08:37:03.956Z,8.83
2022-12-16T08:40:04.843Z,8.90
2022-12-16T08:42:55.282Z,9.10
2022-12-16T08:45:43.464Z,9.03
2022-12-16T08:48:29.198Z,8.60
2022-12-16T08:51:14.832Z,8.90
2022-12-16T08:54:00.515Z,8.93
2022-12-16T08:56:45.957Z,8.43
2022-12-16T08:59:31.750Z,8.77
2022-12-16T09:02:19.220Z,9.00
2022-12-16T09:05:05.071Z,8.50
2022-12-16T09:07:50.442Z,8.47
2022-12-16T09:10:40.365Z,7.40
2022-12-16T09:13:26.687Z,7.60
2022-12-16T09:16:17.575Z,7.73
2022-12-16T09:19:06.491Z,7.53
2022-12-16T09:21:52.446Z,7.17
2022-12-16T09:24:39.975Z,7.57
2022-12-16T09:27:25.595Z,7.80
2022-12-16T09:30:10.998Z,8.00
2022-12-16T09:33:00.460Z,7.47
2022-12-16T09:35:47.213Z,7.47
2022-12-16T09:38:33.234Z,7.53
2022-12-16T09:41:31.032Z,8.00
2022-12-16T09:44:27.650Z,7.80
2022-12-16T09:47:21.619Z,7.17
2022-12-16T09:50:09.118Z,7.00
2022-12-16T09:53:01.275Z,7.00
2022-12-16T09:55:50.730Z,7.17
2022-12-16T09:58:38.967Z,6.63
2022-12-16T10:01:25.108Z,7.17
2022-12-16T10:04:21.073Z,7.10
2022-12-16T10:07:07.428Z,6.33
2022-12-16T10:10:04.670Z,6.80
2022-12-16T10:12:59.660Z,6.67
2022-12-16T10:15:52.610Z,5.80
2022-12-16T10:18:50.692Z,6.50
2022-12-16T10:21:41.935Z,6.60
2022-12-16T10:24:40.994Z,6.50
2022-12-16T10:27:32.244Z,6.20
2022-12-16T10:30:19.221Z,6.37
2022-12-16T10:33:06.954Z,5.53
2022-12-16T10:35:56.606Z,6.37
2022-12-16T10:38:47.246Z,6.20
2022-12-16T10:41:33.841Z,6.67
2022-12-16T10:44:28.697Z,6.50
2022-12-16T10:47:13.961Z,6.50
2022-12-16T10:49:59.450Z,6.90
2022-12-16T10:52:45.024Z,6.80
2022-12-16T10:55:41.375Z,6.43
2022-12-16T10:58:38.582Z,6.17
2022-12-16T11:01:41.567Z,6.57
2022-12-16T11:04:49.982Z,7.17
2022-12-16T11:07:48.408Z,8.30
2022-12-16T11:10:50.465Z,8.47
2022-12-16T11:13:40.027Z,6.70
2022-12-16T11:16:36.383Z,6.60
2022-12-16T11:19:22.252Z,5.60
2022-12-16T11:22:08.340Z,6.53
2022-12-16T11:24:54.454Z,6.20
2022-12-16T11:27:45.287Z,6.40
2022-12-16T11:30:39.488Z,6.17
2022-12-16T11:33:32.977Z,6.30
2022-12-16T11:36:28.635Z,6.50
2022-12-16T11:39:14.198Z,5.50
2022-12-16T11:42:03.047Z,5.77
2022-12-16T11:44:55.473Z,6.27
2022-12-16T11:47:50.148Z,5.47
2022-12-16T11:50:40.949Z,6.13
2022-12-16T11:53:44.209Z,5.60
2022-12-16T11:56:33.091Z,6.17
2022-12-16T11:59:21.864Z,5.70
2022-12-16T12:02:11.592Z,5.90
2022-12-16T12:04:57.106Z,5.40
2022-12-16T12:07:47.852Z,5.33
2022-12-16T12:10:55.916Z,5.67
2022-12-16T12:14:05.282Z,5.57
2022-12-16T12:17:04.323Z,6.20
2022-12-16T12:20:00.094Z,5.83
2022-12-16T12:22:53.098Z,6.07
2022-12-16T12:25:44.272Z,6.27
2022-12-16T12:28:42.407Z,5.77
2022-12-16T12:31:43.705Z,6.67
2022-12-16T12:34:36.812Z,6.30
2022-12-16T12:37:28.243Z,6.57
2022-12-16T12:40:22.175Z,6.67
2022-12-16T12:43:12.209Z,5.80
2022-12-16T12:46:13.305Z,5.93
2022-12-16T12:49:05.569Z,6.37
2022-12-16T12:52:02.257Z,5.77
2022-12-16T12:54:54.030Z,5.80
2022-12-16T12:57:44.351Z,5.33
2022-12-16T13:00:35.835Z,5.67
2022-12-16T13:03:28.694Z,5.33
2022-12-16T13:06:15.034Z,5.33
2022-12-16T13:09:16.107Z,5.73
2022-12-16T13:12:38.181Z,6.07
2022-12-16T13:15:26.577Z,5.50
2022-12-16T13:18:47.775Z,6.00
2022-12-16T13:22:07.283Z,5.60
2022-12-16T13:25:05.192Z,6.07
2022-12-16T13:28:13.345Z,5.40
2022-12-16T13:31:24.656Z,5.27
2022-12-16T13:34:13.654Z,5.57
2022-12-16T13:37:00.213Z,5.70
2022-12-16T13:39:47.586Z,6.07
2022-12-16T13:42:54.261Z,4.90
2022-12-16T13:46:09.686Z,5.17
2022-12-16T13:49:00.842Z,5.63
2022-12-16T13:52:18.498Z,5.87
2022-12-16T13:55:11.048Z,5.77
2022-12-16T13:57:59.729Z,5.83
2022-12-16T14:00:46.788Z,5.80
2022-12-16T14:03:38.722Z,6.83
2022-12-16T14:06:34.727Z,6.53
2022-12-16T14:09:22.946Z,6.33
2022-12-16T14:12:16.326Z,6.47
2022-12-16T14:15:06.894Z,6.37
2022-12-16T14:17:56.893Z,6.10
2022-12-16T14:20:48.892Z,6.13
2022-12-16T14:24:02.049Z,6.40
2022-12-16T14:26:48.056Z,6.30
2022-12-16T14:29:40.262Z,6.43
2022-12-16T14:32:44.199Z,6.33
2022-12-16T14:35:32.294Z,6.90
2022-12-16T14:38:44.956Z,6.43
2022-12-16T14:41:33.519Z,6.10
2022-12-16T14:44:20.136Z,6.67
2022-12-16T14:47:09.691Z,6.90
2022-12-16T14:50:06.312Z,7.30
2022-12-16T14:52:52.003Z,6.83
2022-12-16T14:55:44.471Z,6.57
2022-12-16T14:58:34.053Z,6.70
2022-12-16T15:01:24.048Z,6.17
2022-12-16T15:04:10.123Z,6.03
2022-12-16T15:06:59.006Z,5.73
2022-12-16T15:09:48.126Z,6.27
2022-12-16T15:12:37.049Z,6.30
2022-12-16T15:15:28.760Z,6.47
2022-12-16T15:18:16.449Z,6.67
2022-12-16T15:21:07.575Z,6.97
2022-12-16T15:23:53.342Z,6.10
2022-12-16T15:26:41.458Z,6.63
2022-12-16T15:29:50.530Z,5.83
2022-12-16T15:32:49.210Z,6.60
2022-12-16T15:35:46.011Z,5.93
2022-12-16T15:38:37.596Z,6.37
2022-12-16T15:41:24.643Z,6.20
2022-12-16T15:44:11.215Z,6.50
2022-12-16T15:46:56.937Z,7.00
2022-12-16T15:49:50.651Z,6.43
2022-12-16T15:52:51.315Z,6.47
2022-12-16T15:55:45.807Z,6.23
2022-12-16T15:58:34.557Z,6.30
2022-12-16T16:01:20.539Z,6.00
2022-12-16T16:04:11.004Z,6.37
2022-12-16T16:07:03.359Z,6.27
2022-12-16T16:09:50.337Z,6.73
2022-12-16T16:12:37.395Z,7.17
2022-12-16T16:15:24.896Z,6.77
2022-12-16T16:18:13.824Z,6.60
2022-12-16T16:20:59.320Z,8.13
2022-12-16T16:23:46.681Z,9.90
2022-12-16T16:26:35.627Z,8.13
2022-12-16T16:29:21.546Z,8.03
2022-12-16T16:32:06.970Z,8.50
2022-12-16T16:34:52.283Z,9.03
2022-12-16T16:37:39.890Z,6.67
2022-12-16T16:40:36.826Z,6.70
2022-12-16T16:43:22.580Z,6.57
2022-12-16T16:46:12.587Z,6.90
2022-12-16T16:48:59.104Z,6.97
2022-12-16T16:51:46.159Z,6.60
2022-12-16T16:54:31.534Z,7.10
2022-12-16T16:57:20.099Z,6.60
2022-12-16T17:00:05.571Z,7.30
2022-12-16T17:02:51.368Z,6.73
2022-12-16T17:05:38.511Z,7.00
2022-12-16T17:08:24.947Z,7.40
2022-12-16T17:11:10.608Z,7.47
2022-12-16T17:13:57.358Z,7.17
2022-12-16T17:16:42.869Z,8.10
2022-12-16T17:19:28.492Z,7.37
2022-12-16T17:22:14.141Z,7.03
2022-12-16T17:24:59.777Z,7.03
2022-12-16T17:27:45.131Z,7.00
2022-12-16T17:30:35.801Z,6.97
2022-12-16T17:33:21.470Z,6.83
2022-12-16T17:36:07.807Z,7.13
2022-12-16T17:38:57.270Z,7.13
2022-12-16T17:41:43.285Z,8.10
2022-12-16T17:44:28.588Z,7.50
2022-12-16T17:47:15.339Z,7.00
2022-12-16T17:50:00.815Z,6.90
2022-12-16T17:52:46.871Z,7.83
2022-12-16T17:55:33.041Z,7.50
2022-12-16T17:58:18.366Z,7.60
2022-12-16T18:01:03.751Z,7.70
2022-12-16T18:03:50.698Z,7.40
2022-12-16T18:06:36.340Z,7.17
2022-12-16T18:09:21.864Z,7.63
2022-12-16T18:12:07.291Z,7.50
2022-12-16T18:14:52.672Z,7.27
2022-12-16T18:17:38.109Z,6.60
2022-12-16T18:20:25.956Z,7.47
2022-12-16T18:23:12.091Z,7.00
2022-12-16T18:25:57.914Z,6.97
2022-12-16T18:28:43.254Z,7.60
2022-12-16T18:31:29.090Z,7.90
2022-12-16T18:34:14.495Z,7.73
2022-12-16T18:37:01.307Z,7.13
2022-12-16T18:39:46.531Z,7.27
2022-12-16T18:42:32.110Z,8.23
2022-12-16T18:45:17.733Z,8.03
2022-12-16T18:48:03.028Z,8.00
2022-12-16T18:50:48.939Z,7.63
2022-12-16T18:53:36.433Z,8.37
2022-12-16T18:56:25.054Z,8.70
2022-12-16T18:59:10.583Z,7.80
2022-12-16T19:01:56.779Z,7.43
2022-12-16T19:04:42.222Z,9.00
2022-12-16T19:07:29.830Z,9.30
2022-12-16T19:10:19.820Z,8.60
2022-12-16T19:13:05.496Z,9.67
2022-12-16T19:15:51.116Z,10.10
2022-12-16T19:18:36.957Z,10.30
2022-12-16T19:21:22.932Z,10.23
2022-12-16T19:24:09.300Z,11.50
2022-12-16T19:26:56.637Z,10.20
2022-12-16T19:29:42.266Z,10.43
2022-12-16T19:32:27.910Z,9.53
2022-12-16T19:35:13.337Z,9.20
2022-12-16T19:37:58.792Z,9.00
2022-12-16T19:40:44.409Z,8.73
2022-12-16T19:43:31.142Z,9.57
2022-12-16T19:46:16.828Z,10.00
2022-12-16T19:49:02.189Z,9.80
2022-12-16T19:51:47.604Z,9.57
2022-12-16T19:54:33.149Z,10.17
2022-12-16T19:57:18.739Z,11.63
2022-12-16T20:00:05.767Z,10.60
2022-12-16T20:02:57.351Z,10.20
2022-12-16T20:05:43.089Z,10.90
2022-12-16T20:08:28.750Z,9.50
2022-12-16T20:11:14.306Z,9.57
2022-12-16T20:13:59.943Z,10.17
2022-12-16T20:16:46.868Z,10.77
2022-12-16T20:19:32.262Z,10.03
2022-12-16T20:22:17.732Z,9.20
2022-12-16T20:25:02.979Z,9.70
2022-12-16T20:27:48.398Z,9.27
2022-12-16T20:30:34.097Z,8.60
2022-12-16T20:33:20.914Z,9.33
2022-12-16T20:36:14.184Z,9.23
2022-12-16T20:38:59.877Z,9.70
2022-12-16T20:41:45.446Z,9.80
2022-12-16T20:44:31.177Z,9.93
2022-12-16T20:47:16.801Z,10.60
2022-12-16T20:50:03.432Z,10.87
2022-12-16T20:52:49.259Z,11.40
2022-12-16T20:55:34.695Z,10.53
2022-12-16T20:58:20.099Z,10.70
2022-12-16T21:01:10.295Z,10.27
2022-12-16T21:03:56.194Z,10.33
2022-12-16T21:06:43.815Z,10.40
2022-12-16T21:09:29.374Z,11.63
2022-12-16T21:12:14.709Z,10.33
2022-12-16T21:15:00.266Z,11.23
2022-12-16T21:17:45.661Z,10.67
2022-12-16T21:20:31.104Z,10.53
2022-12-16T21:23:20.379Z,10.80
2022-12-16T21:26:06.000Z,9.93
2022-12-16T21:28:51.777Z,10.33
2022-12-16T21:31:37.619Z,11.50
2022-12-16T21:34:23.666Z,12.73
2022-12-16T21:37:09.341Z,13.10
2022-12-16T21:39:56.408Z,13.10
2022-12-16T21:45:47.667Z,11.43
2022-12-16T21:48:33.196Z,13.07
2022-12-16T21:51:18.828Z,12.93
2022-12-16T21:54:10.819Z,11.70
2022-12-16T21:56:58.328Z,10.73
2022-12-16T21:59:44.025Z,10.63
2022-12-16T22:02:31.137Z,10.63
2022-12-16T22:05:16.688Z,10.33
2022-12-16T22:08:03.073Z,10.80
2022-12-16T22:10:48.817Z,10.33
2022-12-16T22:13:36.172Z,10.17
2022-12-16T22:16:21.699Z,15.03
2022-12-16T22:19:07.268Z,14.10
2022-12-16T22:21:52.988Z,11.83
2022-12-16T22:24:38.967Z,11.27
2022-12-16T22:27:24.326Z,11.63
2022-12-16T22:30:11.122Z,11.80
2022-12-16T22:32:56.700Z,10.90
2022-12-16T22:35:42.058Z,11.00
2022-12-16T22:38:27.533Z,10.77
2022-12-16T22:41:13.675Z,11.03
2022-12-16T22:43:59.423Z,11.30
2022-12-16T22:46:46.594Z,11.07
2022-12-16T22:49:32.618Z,11.90
2022-12-16T22:52:18.297Z,11.27
2022-12-16T22:55:04.197Z,11.70
2022-12-16T22:57:50.902Z,11.97
2022-12-16T23:00:39.193Z,11.00
2022-12-16T23:03:25.990Z,11.40
2022-12-16T23:06:28.482Z,12.47
2022-12-16T23:09:14.101Z,11.10
2022-12-16T23:12:00.699Z,11.17
2022-12-16T23:14:46.253Z,11.57
2022-12-16T23:17:32.492Z,11.70
2022-12-16T23:20:23.615Z,11.77
2022-12-16T23:23:09.170Z,12.03
2022-12-16T23:25:55.303Z,11.50
2022-12-16T23:28:42.309Z,12.07
2022-12-16T23:31:28.327Z,10.73
2022-12-16T23:34:13.695Z,11.83
2022-12-16T23:37:00.487Z,10.97
2022-12-16T23:39:45.986Z,11.83
2022-12-16T23:42:31.655Z,11.17
2022-12-16T23:45:17.178Z,11.63
2022-12-16T23:48:04.358Z,12.37
2022-12-16T23:50:50.018Z,12.83
2022-12-16T23:53:37.211Z,11.97
2022-12-16T23:56:23.264Z,12.03
2022-12-16T23:59:09.194Z,12.30
